Accueil
METAR-TAF:

METAR-TAF

Aéroports :

Burgos, Espagne

Aéroport de Burgos

latitude: 42-22N, longitude: 003-38W, altitude: 894 m

Observation

Le bulletin a été fait il y a 39 minutes, à 16:00 UTC
Vent 15 kt de nord, variant entre nord et nord-est
Température 3°C
Humidité 52%
Pression 1009 hPa
Visibilité 10 km ou plus
Quelques nuages à une hauteur de 3500 ft

METAR: LEBG 221600Z 01015KT 350V050 9999 FEW035 03/M06 Q1009

Heure: 17:39 (16:39 UTC)

Prévision

Le bulletin a été fait il y a 2 heures et 39 minutes, à 14:00 UTC
Prévision valable du 22 à 15 UTC au 22 à 24 UTC
Vent 14 kt de nord/nord-est
Visibilité 10 km ou plus
Nuages épars à une hauteur de 3000 ft
Probabilité 30% :
Temporairement
du 22 à 15 UTC au 22 à 18 UTC
Vent 15 kt de nord-est avec des rafales jusqu'à 25 kt

TAF: LEBG 221400Z 2215/2224 03014KT 9999 SCT030 PROB30 TEMPO 2215/2218 04015G25KT

Observations et prévisions météorologiques de plus de 4000 aéroports (messages METAR et TAF).

Les stations disponibles sont représentées par des disques jaunes et rouges sur la carte.

Passer la souris dessus pour voir le nom de la station.

Cliquer dessus pour voir les observations et prévisions météorologiques.

Pour changer de carte: cliquez sur les boutons verts avec une croix noire pour zoomer, sur le bouton vert avec un tiret pour effectuer un zoom arrière, ou sur les flèches vertes pour les cartes adjacentes.


METAR-TAF: